Time;durP1;ratioP1;P1;durP2;ratioP2;P2;SDS_P1;SDS_P2;PMS_P1;PMS_P2;Temp;Humidity;BMP_temperature;BMP_pressure;BME280_temperature;BME280_humidity;BME280_pressure;Samples;Min_cycle;Max_cycle;Signal;HPM_P1;HPM_P2
2022/07/30 00:00:37;;;;;;;40.87;7.40;;;;;;;25.53;54.15;99307.50;7304099;19;130009;-37
2022/07/30 00:03:03;;;;;;;50.77;8.47;;;;;;;25.55;54.10;99304.69;7304700;19;129600;-38
2022/07/30 00:05:28;;;;;;;72.00;10.20;;;;;;;25.55;54.26;99304.69;7305323;19;128925;-39
2022/07/30 00:07:54;;;;;;;54.27;8.63;;;;;;;25.56;54.91;99307.13;7305068;19;129043;-35
2022/07/30 00:10:21;;;;;;;39.07;7.50;;;;;;;25.56;53.79;99306.31;7310996;19;130497;-36
2022/07/30 00:12:47;;;;;;;53.08;8.75;;;;;;;25.56;53.74;99306.31;7316649;19;129043;-37
2022/07/30 00:15:12;;;;;;;45.37;8.30;;;;;;;25.55;54.54;99309.94;7317944;19;130774;-40
2022/07/30 00:17:38;;;;;;;32.50;7.00;;;;;;;25.55;53.98;99316.00;7315031;19;130027;-42
2022/07/30 00:20:04;;;;;;;43.00;7.63;;;;;;;25.56;53.84;99325.56;7315373;19;130103;-38
2022/07/30 00:22:30;;;;;;;42.17;8.07;;;;;;;25.55;53.91;99321.28;7316913;19;129594;-36
2022/07/30 00:24:56;;;;;;;54.60;8.80;;;;;;;25.57;54.17;99323.72;7317292;19;129712;-36
2022/07/30 00:27:21;;;;;;;35.40;7.37;;;;;;;25.56;54.17;99332.63;7316814;19;129725;-38
2022/07/30 00:29:46;;;;;;;39.73;7.57;;;;;;;25.54;54.79;99330.19;7314735;19;129843;-38
2022/07/30 00:32:12;;;;;;;57.60;8.57;;;;;;;25.55;53.87;99331.00;7316017;19;128959;-36
2022/07/30 00:34:37;;;;;;;44.67;7.50;;;;;;;25.56;54.60;99327.38;7317302;19;129482;-39
2022/07/30 00:37:02;;;;;;;44.03;7.50;;;;;;;25.47;54.15;99318.69;7314566;19;130174;-35
2022/07/30 00:39:29;;;;;;;41.07;7.30;;;;;;;25.55;54.41;99334.44;7312308;19;129668;-43
2022/07/30 00:42:00;;;;;;;49.10;7.20;;;;;;;25.54;54.90;99329.34;7315667;19;130103;-35
2022/07/30 00:44:27;;;;;;;40.80;7.15;;;;;;;25.54;54.18;99339.88;7316196;19;129022;-42
2022/07/30 00:46:52;;;;;;;;;;;;;;;25.60;55.85;99333.94;7305671;19;130101;-36
2022/07/30 00:49:18;;;;;;;34.83;6.60;;;;;;;25.45;53.97;99318.03;7309309;19;130232;-39
2022/07/30 00:51:44;;;;;;;42.33;6.90;;;;;;;25.54;54.82;99340.72;7314731;19;129454;-40
2022/07/30 00:54:09;;;;;;;42.07;6.83;;;;;;;25.52;55.10;99332.16;7315909;19;130503;-40
2022/07/30 00:56:34;;;;;;;43.63;7.30;;;;;;;25.53;54.31;99328.56;7313668;19;129798;-35
2022/07/30 00:59:00;;;;;;;32.50;6.30;;;;;;;25.53;54.52;99325.91;7311758;19;129570;-35
2022/07/30 01:01:25;;;;;;;52.23;7.30;;;;;;;25.53;54.68;99327.72;7314087;19;128941;-38
2022/07/30 01:03:50;;;;;;;34.20;6.53;;;;;;;25.50;54.07;99315.69;7314819;19;128777;-38
2022/07/30 01:06:16;;;;;;;32.23;6.10;;;;;;;25.51;54.16;99313.91;7313804;19;129945;-36
2022/07/30 01:08:42;;;;;;;27.27;5.77;;;;;;;25.52;54.80;99312.91;7311670;19;129113;-41
2022/07/30 01:11:09;;;;;;;53.63;7.40;;;;;;;25.52;55.20;99311.09;7314285;19;129219;-41
2022/07/30 01:13:34;;;;;;;42.58;6.57;;;;;;;25.52;54.16;99305.00;7315474;19;129785;-37
2022/07/30 01:15:59;;;;;;;37.03;6.00;;;;;;;25.52;54.26;99316.34;7314548;19;129231;-46
2022/07/30 01:19:47;;;;;;;38.17;6.27;;;;;;;25.52;54.37;99320.78;7310884;19;131032;-39
2022/07/30 01:21:17;;;;;;;30.17;5.73;;;;;;;25.52;56.16;99311.09;7313375;19;129033;-38
2022/07/30 01:23:45;;;;;;;45.35;6.32;;;;;;;25.52;55.46;99310.25;7315567;19;129550;-44
2022/07/30 01:26:16;;;;;;;52.58;7.72;;;;;;;25.51;55.59;99311.25;7314513;19;129091;-36
2022/07/30 01:28:48;;;;;;;34.13;5.45;;;;;;;25.52;55.05;99310.25;7311716;19;131333;-36
2022/07/30 01:31:15;;;;;;;30.73;5.63;;;;;;;25.43;54.81;99296.34;7313911;19;129545;-42
2022/07/30 01:33:45;;;;;;;41.80;6.30;;;;;;;25.52;55.94;99310.25;7314288;19;128895;-37
2022/07/30 01:36:14;;;;;;;55.85;7.85;;;;;;;25.50;56.21;99307.00;7312591;19;129642;-36
2022/07/30 01:38:43;;;;;;;30.30;5.30;;;;;;;25.51;55.58;99317.38;7312672;19;130209;-37
2022/07/30 01:41:10;;;;;;;48.05;6.75;;;;;;;25.51;55.38;99312.09;7313031;19;130339;-39
2022/07/30 01:43:36;;;;;;;31.63;5.45;;;;;;;25.50;54.98;99312.28;7313614;19;129106;-37
2022/07/30 01:46:03;;;;;;;47.42;6.75;;;;;;;25.51;55.52;99309.47;7311872;19;129410;-39
2022/07/30 01:48:30;;;;;;;31.80;5.30;;;;;;;25.51;55.59;99308.63;7312039;19;129878;-35
2022/07/30 01:50:59;;;;;;;23.75;4.63;;;;;;;25.51;56.03;99300.75;7313516;19;129656;-35
2022/07/30 01:53:27;;;;;;;32.75;5.78;;;;;;;25.52;56.15;99305.00;7312923;19;131466;-42
2022/07/30 01:55:54;;;;;;;36.58;5.57;;;;;;;25.51;55.78;99306.00;7312951;19;130626;-34
2022/07/30 01:58:23;;;;;;;50.38;6.65;;;;;;;25.51;56.21;99308.63;7310409;19;129628;-38
2022/07/30 02:00:49;;;;;;;15.45;3.85;;;;;;;25.51;56.00;99309.47;7314166;19;128960;-33
2022/07/30 02:03:15;;;;;;;52.03;7.03;;;;;;;25.52;54.93;99307.63;7313508;19;129660;-40
2022/07/30 02:05:44;;;;;;;37.93;5.20;;;;;;;25.45;56.15;99293.53;7313594;19;129423;-37
2022/07/30 02:08:21;;;;;;;60.08;7.15;;;;;;;25.52;56.40;99299.72;7310790;19;130945;-41
2022/07/30 02:14:03;;;;;;;47.63;5.95;;;;;;;25.45;55.85;99277.75;7312536;19;129971;-37
2022/07/30 02:16:36;;;;;;;25.08;4.50;;;;;;;25.47;56.88;99283.63;7312128;19;129141;-39
2022/07/30 02:19:08;;;;;;;38.05;5.32;;;;;;;25.54;56.89;99300.38;7310835;19;130894;-40
2022/07/30 02:21:37;;;;;;;32.85;4.63;;;;;;;25.54;56.16;99297.75;7311661;19;129708;-37
2022/07/30 02:24:07;;;;;;;31.73;4.80;;;;;;;25.50;56.09;99292.00;7313311;19;129354;-38
2022/07/30 02:26:35;;;;;;;39.00;5.55;;;;;;;25.50;55.97;99297.28;7311738;19;130110;-35
2022/07/30 02:29:02;;;;;;;28.90;4.80;;;;;;;25.52;55.96;99299.72;7310843;19;129887;-36
2022/07/30 02:31:30;;;;;;;26.10;4.68;;;;;;;25.52;56.27;99300.56;7313125;19;129427;-40
2022/07/30 02:33:59;;;;;;;27.80;4.55;;;;;;;25.52;56.66;99300.56;7310332;19;129857;-37
2022/07/30 02:36:26;;;;;;;33.05;4.57;;;;;;;25.51;55.74;99304.19;7311945;19;129738;-42
2022/07/30 02:38:52;;;;;;;45.58;5.60;;;;;;;25.52;56.01;99302.38;7309828;19;130960;-36
2022/07/30 02:41:21;;;;;;;20.02;3.60;;;;;;;25.55;56.54;99299.41;7312104;19;129307;-36
2022/07/30 02:43:48;;;;;;;44.42;5.70;;;;;;;25.53;55.82;99298.75;7311963;19;129197;-35
2022/07/30 02:46:17;;;;;;;39.70;5.63;;;;;;;25.50;56.08;99301.75;7310898;19;130067;-36
2022/07/30 02:48:43;;;;;;;39.38;5.47;;;;;;;25.51;56.17;99304.19;7310273;19;129435;-37
2022/07/30 02:51:09;;;;;;;;;;;;;;;25.60;57.11;99302.34;7312901;19;131369;-37
2022/07/30 02:53:37;;;;;;;29.88;4.35;;;;;;;25.46;55.09;99284.63;7312445;19;129276;-38
2022/07/30 02:56:06;;;;;;;57.38;6.60;;;;;;;25.47;56.38;99296.78;7309015;19;130911;-39
2022/07/30 02:58:34;;;;;;;37.85;5.13;;;;;;;25.51;56.41;99306.00;7307883;19;129642;-37
2022/07/30 03:01:01;;;;;;;41.22;5.25;;;;;;;25.53;56.11;99311.94;7311030;19;129196;-37
2022/07/30 03:03:27;;;;;;;;;;;;;;;25.63;57.59;99308.06;7311941;19;129131;-38
2022/07/30 03:05:54;;;;;;;42.83;5.53;;;;;;;25.49;56.03;99289.56;7310480;19;130108;-41
2022/07/30 03:08:20;;;;;;;39.00;5.00;;;;;;;25.56;56.38;99306.31;7308722;19;130436;-36
2022/07/30 03:10:47;;;;;;;25.90;4.10;;;;;;;25.54;55.90;99308.28;7311063;19;129002;-41
2022/07/30 03:13:14;;;;;;;42.95;6.00;;;;;;;25.54;56.48;99318.81;7310427;19;129128;-33
2022/07/30 03:15:47;;;;;;;32.75;4.60;;;;;;;25.46;56.65;99300.44;7310826;19;129518;-41
2022/07/30 03:18:14;;;;;;;68.57;7.30;;;;;;;25.56;56.14;99311.56;7307082;19;130455;-37
2022/07/30 03:20:40;;;;;;;32.22;4.43;;;;;;;25.53;56.32;99311.94;7311856;19;129454;-41
2022/07/30 03:23:06;;;;;;;33.97;4.77;;;;;;;25.52;56.32;99297.09;7310720;19;128872;-37
2022/07/30 03:25:34;;;;;;;29.42;4.40;;;;;;;25.53;56.18;99304.84;7310571;19;129633;-35
2022/07/30 03:28:02;;;;;;;45.53;5.30;;;;;;;25.54;56.36;99293.31;7308317;19;129298;-38
2022/07/30 03:30:29;;;;;;;27.35;4.78;;;;;;;25.55;56.37;99299.41;7309855;19;130818;-40
2022/07/30 03:32:56;;;;;;;29.80;4.20;;;;;;;25.48;56.21;99278.22;7310816;19;129273;-41
2022/07/30 03:35:25;;;;;;;25.50;4.00;;;;;;;25.55;55.92;99299.41;7310469;19;130406;-38
2022/07/30 03:37:53;;;;;;;46.40;5.10;;;;;;;25.54;55.41;99292.50;7307584;19;131397;-38
2022/07/30 03:40:19;;;;;;;32.40;4.70;;;;;;;25.54;56.29;99295.13;7309768;19;130339;-41
2022/07/30 03:42:45;;;;;;;25.33;3.73;;;;;;;25.55;56.70;99294.94;7310684;19;129072;-39
2022/07/30 03:45:14;;;;;;;27.17;4.22;;;;;;;25.55;56.16;99296.78;7318324;19;129676;-41
2022/07/30 03:47:41;;;;;;;39.50;4.70;;;;;;;25.54;56.05;99297.75;7322294;19;129486;-38
2022/07/30 03:50:08;;;;;;;28.77;4.35;;;;;;;25.52;55.85;99305.00;7323779;19;129222;-41
2022/07/30 03:52:37;;;;;;;48.72;5.90;;;;;;;25.55;55.66;99317.84;7325313;19;129278;-38
2022/07/30 03:55:06;;;;;;;27.80;4.00;;;;;;;25.55;55.85;99315.22;7325322;19;129471;-36
2022/07/30 03:57:31;;;;;;;31.23;4.47;;;;;;;25.54;56.40;99313.56;7321827;19;131144;-37
2022/07/30 03:59:57;;;;;;;45.87;4.97;;;;;;;25.48;56.03;99293.19;7323774;19;130593;-41
2022/07/30 04:02:23;;;;;;;26.13;3.67;;;;;;;25.55;56.08;99307.31;7323952;19;128993;-38
2022/07/30 04:04:48;;;;;;;33.17;4.23;;;;;;;25.54;56.17;99298.59;7325030;19;129449;-37
2022/07/30 04:07:15;;;;;;;42.60;5.33;;;;;;;25.54;56.08;99309.13;7323709;19;129344;-37
2022/07/30 04:09:40;;;;;;;49.28;5.68;;;;;;;25.55;56.62;99305.47;7324306;19;129535;-39
2022/07/30 04:12:06;;;;;;;17.87;3.37;;;;;;;25.56;56.07;99306.31;7324830;19;129044;-38
2022/07/30 04:14:42;;;;;;;36.67;5.17;;;;;;;25.58;57.70;99306.97;7322567;19;129445;-36
2022/07/30 04:17:21;;;;;;;40.63;4.60;;;;;;;25.49;57.36;99294.81;7321801;19;129230;-40
2022/07/30 04:19:59;;;;;;;45.97;5.45;;;;;;;25.57;57.56;99302.66;7322738;19;129351;-38
2022/07/30 04:22:29;;;;;;;35.85;4.45;;;;;;;25.55;56.06;99299.41;7323910;19;129158;-38
2022/07/30 04:24:56;;;;;;;13.55;3.00;;;;;;;25.48;56.44;99295.81;7324536;19;129288;-41
2022/07/30 04:27:24;;;;;;;25.33;3.63;;;;;;;25.53;56.27;99306.66;7322344;19;129267;-40
2022/07/30 04:29:50;;;;;;;36.38;4.93;;;;;;;25.53;56.37;99307.50;7322288;19;129955;-37
2022/07/30 04:32:17;;;;;;;38.97;4.72;;;;;;;25.55;56.66;99310.75;7324137;19;129109;-35
2022/07/30 04:34:49;;;;;;;38.72;4.57;;;;;;;25.54;57.16;99310.91;7324284;19;130690;-39
2022/07/30 04:37:16;;;;;;;28.55;3.88;;;;;;;25.54;55.75;99314.38;7321652;19;129382;-37
2022/07/30 04:39:42;;;;;;;38.13;5.07;;;;;;;25.57;55.84;99315.84;7321095;19;129560;-36
2022/07/30 04:42:07;;;;;;;39.90;4.97;;;;;;;25.56;55.95;99312.41;7322813;19;129754;-37
2022/07/30 04:44:33;;;;;;;46.50;5.20;;;;;;;25.50;55.98;99307.00;7322321;19;129586;-41
2022/07/30 04:46:59;;;;;;;38.03;4.77;;;;;;;25.56;55.88;99316.84;7321357;19;130475;-38
2022/07/30 04:49:26;;;;;;;20.60;3.20;;;;;;;25.56;56.60;99314.22;7319018;19;129578;-44
2022/07/30 04:51:53;;;;;;;49.40;5.22;;;;;;;25.55;56.34;99315.22;7322133;19;129976;-36
2022/07/30 04:54:19;;;;;;;;;;;;;;;25.62;57.02;99316.97;7322659;19;129728;-38
2022/07/30 04:56:47;;;;;;;35.85;4.30;;;;;;;25.57;56.79;99326.38;7314826;19;129749;-38
2022/07/30 04:59:15;;;;;;;38.28;4.93;;;;;;;25.55;56.29;99315.22;7312229;19;129337;-37
2022/07/30 05:01:40;;;;;;;32.60;4.28;;;;;;;25.55;55.88;99309.94;7313976;19;128877;-35
2022/07/30 05:04:07;;;;;;;48.73;5.37;;;;;;;25.54;56.73;99311.75;7314283;19;128897;-37
2022/07/30 05:06:33;;;;;;;;;;;;;;;25.64;57.85;99316.78;7315159;19;129937;-38
2022/07/30 05:08:59;;;;;;;35.50;4.38;;;;;;;25.57;55.81;99319.28;7313225;19;131032;-35
2022/07/30 05:11:24;;;;;;;29.57;3.70;;;;;;;25.58;55.87;99314.88;7314801;19;129096;-43
2022/07/30 05:13:50;;;;;;;34.47;4.20;;;;;;;25.56;55.42;99308.94;7314953;19;130004;-40
2022/07/30 05:16:15;;;;;;;41.60;5.07;;;;;;;25.49;56.04;99302.72;7313906;19;129646;-39
2022/07/30 05:18:41;;;;;;;31.67;4.13;;;;;;;25.57;56.49;99307.94;7312362;19;130431;-35
2022/07/30 05:21:07;;;;;;;54.63;5.73;;;;;;;25.58;56.36;99309.59;7314033;19;129328;-39
2022/07/30 05:23:32;;;;;;;20.10;3.60;;;;;;;25.56;55.48;99312.41;7314002;19;131084;-38
2022/07/30 05:25:58;;;;;;;45.90;5.07;;;;;;;25.57;55.44;99305.31;7312449;19;129189;-40
2022/07/30 05:28:25;;;;;;;14.57;2.83;;;;;;;25.56;55.81;99307.13;7311224;19;129077;-37
2022/07/30 05:30:52;;;;;;;37.85;4.20;;;;;;;25.55;56.55;99302.06;7314282;19;129408;-33
2022/07/30 05:33:18;;;;;;;33.03;4.13;;;;;;;25.55;55.57;99312.59;7313430;19;129739;-40
2022/07/30 05:35:44;;;;;;;17.00;3.53;;;;;;;25.56;55.91;99312.41;7313586;19;129466;-37
2022/07/30 05:38:09;;;;;;;50.97;5.83;;;;;;;25.57;56.14;99307.94;7311589;19;128811;-37
2022/07/30 05:40:35;;;;;;;40.63;4.50;;;;;;;25.52;55.58;99303.19;7313882;19;130103;-38
2022/07/30 05:43:00;;;;;;;35.53;4.23;;;;;;;25.57;55.95;99310.56;7314209;19;129370;-46
2022/07/30 05:45:25;;;;;;;10.60;2.37;;;;;;;25.56;56.14;99309.78;7312625;19;129110;-35
2022/07/30 05:47:51;;;;;;;23.93;3.40;;;;;;;25.55;55.91;99308.13;7310215;19;131412;-34
2022/07/30 05:50:16;;;;;;;52.17;5.37;;;;;;;25.57;56.75;99316.66;7312113;19;130988;-37
2022/07/30 05:52:42;;;;;;;18.90;3.07;;;;;;;25.56;56.38;99311.56;7314414;19;131170;-37
2022/07/30 05:55:08;;;;;;;46.90;5.20;;;;;;;25.55;56.95;99315.22;7312484;19;130085;-38
2022/07/30 05:57:35;;;;;;;42.65;4.88;;;;;;;25.55;55.51;99315.22;7311966;19;129005;-36
2022/07/30 06:00:01;;;;;;;27.02;3.65;;;;;;;25.51;56.27;99306.00;7311496;19;128997;-38
2022/07/30 06:02:27;;;;;;;21.30;3.22;;;;;;;25.56;56.52;99314.22;7313228;19;131154;-39
2022/07/30 06:04:52;;;;;;;13.00;2.70;;;;;;;25.56;56.52;99319.47;7313188;19;131070;-33
2022/07/30 06:07:17;;;;;;;39.93;4.13;;;;;;;25.55;57.00;99315.22;7310131;19;129816;-33
2022/07/30 06:09:43;;;;;;;31.53;3.70;;;;;;;25.55;56.00;99315.22;7312005;19;129656;-40
2022/07/30 06:12:08;;;;;;;24.63;3.80;;;;;;;25.56;56.99;99322.09;7312722;19;129700;-36
2022/07/30 06:14:34;;;;;;;32.80;4.03;;;;;;;25.55;56.15;99325.75;7313025;19;130913;-35
2022/07/30 06:16:59;;;;;;;41.00;4.80;;;;;;;25.52;56.50;99315.53;7310538;19;130405;-41
2022/07/30 06:19:25;;;;;;;96.70;8.87;;;;;;;25.44;56.13;99312.94;7299759;19;129115;-39
2022/07/30 06:21:50;;;;;;;29.77;3.80;;;;;;;25.54;56.89;99326.72;7308031;19;131258;-34
2022/07/30 06:24:15;;;;;;;43.47;5.03;;;;;;;25.47;56.83;99318.69;7310643;19;130312;-37
2022/07/30 06:26:41;;;;;;;54.57;5.70;;;;;;;25.55;56.68;99341.53;7310321;19;130069;-35
2022/07/30 06:29:06;;;;;;;53.57;5.60;;;;;;;25.56;56.52;99337.91;7308664;19;129522;-38
2022/07/30 06:31:33;;;;;;;26.13;3.67;;;;;;;25.56;56.94;99341.38;7308485;19;129075;-37
2022/07/30 06:33:58;;;;;;;9.35;2.28;;;;;;;25.57;55.46;99342.16;7311062;19;130357;-37
2022/07/30 06:36:23;;;;;;;54.63;5.40;;;;;;;25.55;56.47;99337.06;7310236;19;129980;-35
2022/07/30 06:38:49;;;;;;;20.80;3.30;;;;;;;25.56;56.90;99340.53;7310102;19;128937;-36
2022/07/30 06:41:14;;;;;;;36.13;4.93;;;;;;;25.56;56.36;99345.81;7309610;19;129378;-36
2022/07/30 06:43:40;;;;;;;30.70;3.73;;;;;;;25.56;56.79;99343.16;7310674;19;129956;-31
2022/07/30 06:46:05;;;;;;;53.63;5.30;;;;;;;25.55;55.65;99342.34;7310154;19;129197;-42
2022/07/30 06:48:31;;;;;;;31.57;3.87;;;;;;;25.55;56.29;99341.53;7307771;19;129921;-37
2022/07/30 06:50:56;;;;;;;23.83;3.27;;;;;;;25.55;56.75;99346.81;7310587;19;130302;-37
2022/07/30 06:53:22;;;;;;;62.00;6.10;;;;;;;25.54;56.78;99343.34;7307995;19;130407;-35
2022/07/30 06:55:49;;;;;;;50.53;5.13;;;;;;;25.55;55.53;99346.81;7309852;19;129353;-35
2022/07/30 06:58:14;;;;;;;56.85;6.05;;;;;;;25.52;56.15;99344.50;7309220;19;129480;-36
2022/07/30 07:00:41;;;;;;;33.00;4.10;;;;;;;25.53;55.96;99343.50;7309266;19;130712;-34
2022/07/30 07:03:07;;;;;;;39.10;4.40;;;;;;;25.51;55.86;99346.31;7309356;19;130217;-37
2022/07/30 07:05:32;;;;;;;46.03;4.83;;;;;;;25.53;55.74;99349.63;7309930;19;129106;-35
2022/07/30 07:07:57;;;;;;;24.03;3.53;;;;;;;25.55;55.81;99362.59;7309154;19;129811;-37
2022/07/30 07:10:23;;;;;;;39.27;4.60;;;;;;;25.52;55.38;99357.66;7309006;19;129711;-42
2022/07/30 07:12:48;;;;;;;19.70;3.13;;;;;;;25.51;56.15;99361.28;7310568;19;129128;-36
2022/07/30 07:15:14;;;;;;;38.37;4.33;;;;;;;25.51;55.69;99366.56;7310037;19;129432;-36
2022/07/30 07:17:40;;;;;;;38.93;4.63;;;;;;;25.50;55.94;99371.00;7308779;19;129188;-39
2022/07/30 07:20:06;;;;;;;42.00;4.88;;;;;;;25.55;55.76;99375.75;7304685;19;130904;-39
2022/07/30 07:22:32;;;;;;;48.70;5.33;;;;;;;25.57;56.62;99371.13;7310589;19;132113;-38
2022/07/30 07:24:57;;;;;;;76.20;7.20;;;;;;;25.50;56.32;99373.63;7310473;19;130388;-38
2022/07/30 07:27:22;;;;;;;45.03;5.17;;;;;;;25.48;56.94;99372.16;7308114;19;129264;-36
2022/07/30 07:29:48;;;;;;;17.80;3.27;;;;;;;25.48;55.90;99366.91;7308489;19;129535;-33
2022/07/30 07:32:13;;;;;;;47.47;4.97;;;;;;;25.50;55.63;99371.00;7310063;19;129155;-37
2022/07/30 07:34:39;;;;;;;39.83;5.00;;;;;;;25.54;55.52;99371.47;7308933;19;129536;-36
2022/07/30 07:37:04;;;;;;;26.43;3.67;;;;;;;25.55;55.64;99370.50;7308786;19;130579;-35
2022/07/30 07:39:29;;;;;;;28.90;3.93;;;;;;;25.51;55.14;99369.19;7304616;19;129516;-40
2022/07/30 07:41:55;;;;;;;36.80;3.93;;;;;;;25.51;55.60;99374.44;7308699;19;130141;-37
2022/07/30 07:44:20;;;;;;;14.20;2.67;;;;;;;25.51;55.68;99371.81;7306556;19;129723;-39
2022/07/30 07:46:46;;;;;;;39.27;4.87;;;;;;;25.42;56.31;99362.31;7308017;19;129906;-34
2022/07/30 07:49:11;;;;;;;45.73;5.40;;;;;;;25.49;56.33;99369.34;7304802;19;129511;-41
2022/07/30 07:51:37;;;;;;;35.47;4.03;;;;;;;25.51;56.51;99374.44;7309687;19;129246;-38
2022/07/30 07:54:02;;;;;;;35.07;4.50;;;;;;;25.50;55.26;99372.81;7308037;19;130894;-33
2022/07/30 07:56:28;;;;;;;31.60;3.97;;;;;;;25.54;56.77;99371.47;7308356;19;129370;-35
2022/07/30 07:58:53;;;;;;;47.43;4.77;;;;;;;25.52;56.52;99378.72;7305569;19;130749;-42
2022/07/30 08:01:20;;;;;;;35.63;4.23;;;;;;;25.51;55.87;99374.44;7309278;19;130658;-38
2022/07/30 08:03:46;;;;;;;38.88;4.60;;;;;;;25.55;55.20;99373.13;7308054;19;129044;-39
2022/07/30 08:06:12;;;;;;;36.53;4.37;;;;;;;25.55;55.40;99378.41;7309737;19;129903;-36
2022/07/30 08:08:37;;;;;;;30.53;4.27;;;;;;;25.54;54.88;99382.00;7305850;19;129175;-38
2022/07/30 08:11:04;;;;;;;39.03;4.20;;;;;;;25.44;55.78;99365.59;7306768;19;131344;-35
2022/07/30 08:13:30;;;;;;;20.73;3.10;;;;;;;25.54;55.74;99382.84;7311104;19;128973;-33
2022/07/30 08:15:55;;;;;;;35.43;4.47;;;;;;;25.55;55.13;99383.66;7307993;19;129319;-38
2022/07/30 08:18:20;;;;;;;34.30;4.13;;;;;;;25.51;55.18;99382.34;7304811;19;129273;-37
2022/07/30 08:20:46;;;;;;;27.53;3.40;;;;;;;25.44;54.72;99371.69;7309214;19;131611;-41
2022/07/30 08:23:11;;;;;;;54.93;5.77;;;;;;;25.55;55.16;99387.09;7309186;19;130290;-34
2022/07/30 08:25:36;;;;;;;32.00;4.17;;;;;;;25.52;54.69;99389.25;7308455;19;129399;-35
2022/07/30 08:28:02;;;;;;;55.07;5.57;;;;;;;25.53;55.07;99385.63;7305721;19;129922;-34
2022/07/30 08:30:28;;;;;;;28.67;3.37;;;;;;;25.53;54.82;99385.63;7305634;19;131654;-39
2022/07/30 08:32:53;;;;;;;55.80;5.33;;;;;;;25.50;54.69;99380.72;7311756;19;129663;-40
2022/07/30 08:35:19;;;;;;;20.93;3.17;;;;;;;25.52;55.70;99386.59;7315207;19;131511;-34
2022/07/30 08:37:44;;;;;;;42.13;4.47;;;;;;;25.55;56.12;99381.03;7313299;19;129489;-41
2022/07/30 08:40:11;;;;;;;52.03;5.57;;;;;;;25.55;56.04;99386.28;7313521;19;131571;-39
2022/07/30 08:42:36;;;;;;;29.85;4.03;;;;;;;25.50;55.37;99381.50;7314888;19;128801;-40
2022/07/30 08:45:03;;;;;;;31.83;3.70;;;;;;;25.48;54.86;99387.97;7312841;19;129494;-39
2022/07/30 08:47:32;;;;;;;19.70;2.97;;;;;;;25.41;56.44;99376.44;7315256;19;129576;-37
2022/07/30 08:50:04;;;;;;;13.80;2.95;;;;;;;25.49;55.82;99389.59;7310628;19;129447;-44
2022/07/30 08:52:31;;;;;;;29.30;3.67;;;;;;;25.50;55.97;99391.25;7315117;19;129079;-38
2022/07/30 08:54:58;;;;;;;21.20;3.20;;;;;;;25.48;54.87;99393.22;7314593;19;129082;-35
2022/07/30 08:57:24;;;;;;;40.97;4.68;;;;;;;25.46;54.59;99392.56;7313963;19;129636;-38
2022/07/30 08:59:50;;;;;;;22.50;3.10;;;;;;;25.48;55.36;99395.84;7314311;19;129273;-37
2022/07/30 09:02:16;;;;;;;43.95;4.57;;;;;;;25.50;54.30;99392.03;7313755;19;129380;-35
2022/07/30 09:04:41;;;;;;;31.87;3.77;;;;;;;25.51;55.84;99398.13;7314350;19;129415;-37
2022/07/30 09:07:07;;;;;;;57.20;5.77;;;;;;;25.50;54.97;99401.78;7314530;19;130091;-37
2022/07/30 09:09:32;;;;;;;13.07;2.43;;;;;;;25.50;54.84;99401.78;7309326;19;130764;-34
2022/07/30 09:11:58;;;;;;;24.07;3.33;;;;;;;25.52;55.43;99395.34;7314822;19;129130;-37
2022/07/30 09:14:23;;;;;;;37.03;4.07;;;;;;;25.52;54.79;99397.97;7314354;19;130104;-37
2022/07/30 09:16:57;;;;;;;45.50;4.93;;;;;;;25.51;56.47;99406.03;7313594;19;129956;-38
2022/07/30 09:19:22;;;;;;;30.98;3.85;;;;;;;25.51;55.96;99398.97;7310595;19;130333;-36
2022/07/30 09:21:58;;;;;;;28.97;3.80;;;;;;;25.52;56.55;99402.41;7313671;19;130034;-34
2022/07/30 09:24:24;;;;;;;35.95;4.22;;;;;;;25.51;54.16;99413.94;7312162;19;131152;-37
2022/07/30 09:26:59;;;;;;;36.33;4.05;;;;;;;25.51;56.15;99411.31;7314554;19;129963;-39
2022/07/30 09:29:30;;;;;;;40.67;4.78;;;;;;;25.49;56.02;99415.91;7310075;19;130481;-38
2022/07/30 09:31:57;;;;;;;32.53;4.32;;;;;;;25.48;55.87;99422.19;7313968;19;131376;-37
2022/07/30 09:34:43;;;;;;;41.28;4.75;;;;;;;25.50;57.23;99422.84;7311730;19;129454;-36
2022/07/30 09:37:08;;;;;;;20.98;3.80;;;;;;;25.47;56.28;99425.78;7313672;19;129550;-35
2022/07/30 09:39:39;;;;;;;39.60;4.90;;;;;;;25.48;56.72;99427.44;7308396;19;129679;-36
2022/07/30 09:42:17;;;;;;;44.83;4.88;;;;;;;25.48;57.64;99430.06;7312417;19;129924;-38
2022/07/30 09:44:44;;;;;;;42.60;4.85;;;;;;;25.47;56.56;99417.88;7313858;19;129080;-36
2022/07/30 09:47:29;;;;;;;27.88;4.10;;;;;;;25.47;57.91;99428.41;7313611;19;131046;-34
2022/07/30 09:50:04;;;;;;;23.17;3.70;;;;;;;25.45;58.29;99419.88;7312338;19;130886;-35
2022/07/30 09:52:30;;;;;;;22.45;3.58;;;;;;;25.43;56.40;99427.13;7312820;19;129201;-41
2022/07/30 09:54:55;;;;;;;36.47;4.87;;;;;;;25.36;56.49;99419.06;7312072;19;128857;-36
2022/07/30 09:57:21;;;;;;;36.20;4.03;;;;;;;25.43;56.55;99421.88;7311622;19;129548;-39
2022/07/30 09:59:46;;;;;;;30.07;4.70;;;;;;;25.44;56.40;99428.75;7308767;19;131047;-35
2022/07/30 10:02:12;;;;;;;35.43;4.90;;;;;;;25.44;56.32;99419.06;7312837;19;129002;-36
2022/07/30 10:04:37;;;;;;;35.17;4.37;;;;;;;25.36;56.95;99410.34;7312919;19;129646;-39
2022/07/30 10:07:03;;;;;;;38.43;4.73;;;;;;;25.41;56.35;99422.03;7313089;19;131374;-35
2022/07/30 10:09:28;;;;;;;50.30;5.77;;;;;;;25.42;57.00;99422.84;7309296;19;129428;-37
2022/07/30 10:11:55;;;;;;;27.47;3.90;;;;;;;25.41;57.32;99422.03;7312900;19;128942;-34
2022/07/30 10:14:23;;;;;;;30.30;4.20;;;;;;;25.36;56.99;99416.44;7312837;19;129829;-35
2022/07/30 10:16:50;;;;;;;34.03;4.25;;;;;;;25.42;56.95;99428.13;7310592;19;129398;-36
2022/07/30 10:19:17;;;;;;;42.22;4.65;;;;;;;25.44;57.74;99428.75;7309486;19;130431;-36
2022/07/30 10:21:43;;;;;;;54.17;6.20;;;;;;;25.41;57.41;99434.34;7311084;19;129501;-39
2022/07/30 10:24:09;;;;;;;50.05;5.63;;;;;;;25.43;56.91;99437.66;7311333;19;129291;-34
2022/07/30 10:26:36;;;;;;;33.47;4.30;;;;;;;25.45;57.18;99430.41;7309869;19;129316;-33
2022/07/30 10:29:02;;;;;;;40.35;4.78;;;;;;;25.43;56.66;99437.66;7305414;19;129795;-40
2022/07/30 10:31:28;;;;;;;29.37;4.10;;;;;;;25.43;57.35;99429.75;7313262;19;129295;-35
2022/07/30 10:33:53;;;;;;;26.63;4.40;;;;;;;25.43;57.69;99435.84;7313837;19;129255;-36
2022/07/30 10:36:20;;;;;;;32.13;4.40;;;;;;;25.43;57.60;99442.91;7312260;19;131493;-35
2022/07/30 10:38:46;;;;;;;50.28;5.93;;;;;;;25.43;57.19;99442.91;7310527;19;129924;-31
2022/07/30 10:41:17;;;;;;;40.30;5.22;;;;;;;25.34;56.86;99425.44;7311405;19;129578;-36
2022/07/30 10:43:55;;;;;;;39.60;5.47;;;;;;;25.39;58.97;99433.69;7312247;19;129402;-31
2022/07/30 10:46:56;;;;;;;25.90;4.20;;;;;;;25.44;58.51;99434.03;7312604;19;130081;-38
2022/07/30 10:49:21;;;;;;;26.65;4.03;;;;;;;25.42;57.96;99436.81;7307491;19;129863;-35
2022/07/30 10:51:53;;;;;;;51.13;5.93;;;;;;;25.39;57.06;99437.16;7309454;19;130178;-40
2022/07/30 10:54:44;;;;;;;46.80;5.30;;;;;;;25.42;58.33;99436.03;7307588;19;129268;-38
2022/07/30 10:57:17;;;;;;;35.92;4.78;;;;;;;25.42;58.19;99436.03;7309279;19;130531;-35
2022/07/30 10:59:57;;;;;;;44.17;5.10;;;;;;;25.43;58.70;99437.66;7306635;19;129648;-37
2022/07/30 11:02:24;;;;;;;5.55;2.75;;;;;;;25.41;56.80;99435.19;7312836;19;129758;-39
2022/07/30 11:05:16;;;;;;;34.72;4.47;;;;;;;25.44;58.98;99439.28;7312000;19;129704;-37
2022/07/30 11:07:41;;;;;;;29.10;4.22;;;;;;;25.41;57.33;99442.25;7311404;19;129583;-40
2022/07/30 11:10:39;;;;;;;43.40;5.30;;;;;;;25.37;59.20;99427.81;7311272;19;130282;-33
2022/07/30 11:13:08;;;;;;;31.17;4.40;;;;;;;25.42;57.68;99431.56;7312265;19;130170;-34
2022/07/30 11:15:55;;;;;;;25.90;3.50;;;;;;;25.44;58.79;99428.75;7312450;19;129123;-38
2022/07/30 11:18:23;;;;;;;37.37;4.50;;;;;;;25.44;57.29;99428.75;7309814;19;131757;-35
2022/07/30 11:21:15;;;;;;;29.00;4.18;;;;;;;25.43;59.12;99422.69;7311909;19;130400;-35
2022/07/30 11:23:41;;;;;;;14.48;2.85;;;;;;;25.43;56.75;99427.13;7313243;19;129128;-33